sensor_id;sensor_type;location;lat;lon;timestamp;P1;durP1;ratioP1;P2;durP2;ratioP2
49784;SDS011;35679;38.732;-121.358;2023-07-30T00:00:00;4.00;;;3.70;;
49784;SDS011;35679;38.732;-121.358;2023-07-30T00:02:57;4.10;;;3.72;;
49784;SDS011;35679;38.732;-121.358;2023-07-30T00:05:54;3.88;;;3.58;;
49784;SDS011;35679;38.732;-121.358;2023-07-30T00:08:44;3.97;;;3.63;;
49784;SDS011;35679;38.732;-121.358;2023-07-30T00:11:34;4.43;;;3.95;;
49784;SDS011;35679;38.732;-121.358;2023-07-30T00:14:24;3.70;;;3.40;;
49784;SDS011;35679;38.732;-121.358;2023-07-30T00:17:13;3.85;;;3.55;;
49784;SDS011;35679;38.732;-121.358;2023-07-30T00:20:03;4.15;;;3.72;;
49784;SDS011;35679;38.732;-121.358;2023-07-30T00:22:55;4.00;;;3.60;;
49784;SDS011;35679;38.732;-121.358;2023-07-30T00:25:45;3.55;;;3.25;;
49784;SDS011;35679;38.732;-121.358;2023-07-30T00:28:35;3.60;;;3.30;;
49784;SDS011;35679;38.732;-121.358;2023-07-30T00:31:24;4.05;;;3.75;;
49784;SDS011;35679;38.732;-121.358;2023-07-30T00:34:14;3.72;;;3.35;;
49784;SDS011;35679;38.732;-121.358;2023-07-30T00:37:03;4.13;;;3.60;;
49784;SDS011;35679;38.732;-121.358;2023-07-30T00:39:53;3.70;;;3.40;;
49784;SDS011;35679;38.732;-121.358;2023-07-30T00:42:42;4.00;;;3.60;;
49784;SDS011;35679;38.732;-121.358;2023-07-30T00:45:32;3.80;;;3.50;;
49784;SDS011;35679;38.732;-121.358;2023-07-30T00:48:22;4.20;;;3.80;;
49784;SDS011;35679;38.732;-121.358;2023-07-30T00:51:12;3.70;;;3.40;;
49784;SDS011;35679;38.732;-121.358;2023-07-30T00:54:04;3.75;;;3.45;;
49784;SDS011;35679;38.732;-121.358;2023-07-30T00:56:53;3.70;;;3.40;;
49784;SDS011;35679;38.732;-121.358;2023-07-30T00:59:43;3.75;;;3.45;;
49784;SDS011;35679;38.732;-121.358;2023-07-30T01:02:33;3.47;;;3.28;;
49784;SDS011;35679;38.732;-121.358;2023-07-30T01:05:26;3.83;;;3.53;;
49784;SDS011;35679;38.732;-121.358;2023-07-30T01:08:16;3.92;;;3.55;;
49784;SDS011;35679;38.732;-121.358;2023-07-30T01:11:05;3.33;;;3.10;;
49784;SDS011;35679;38.732;-121.358;2023-07-30T01:13:56;3.60;;;3.30;;
49784;SDS011;35679;38.732;-121.358;2023-07-30T01:16:47;3.83;;;3.38;;
49784;SDS011;35679;38.732;-121.358;2023-07-30T01:19:37;3.85;;;3.55;;
49784;SDS011;35679;38.732;-121.358;2023-07-30T01:22:27;3.85;;;3.42;;
49784;SDS011;35679;38.732;-121.358;2023-07-30T01:25:17;3.75;;;3.30;;
49784;SDS011;35679;38.732;-121.358;2023-07-30T01:28:09;3.67;;;3.38;;
49784;SDS011;35679;38.732;-121.358;2023-07-30T01:31:06;3.28;;;2.97;;
49784;SDS011;35679;38.732;-121.358;2023-07-30T01:33:57;3.70;;;3.40;;
49784;SDS011;35679;38.732;-121.358;2023-07-30T01:36:48;3.60;;;3.30;;
49784;SDS011;35679;38.732;-121.358;2023-07-30T01:39:41;4.20;;;3.80;;
49784;SDS011;35679;38.732;-121.358;2023-07-30T01:42:33;3.60;;;3.30;;
49784;SDS011;35679;38.732;-121.358;2023-07-30T01:45:23;3.85;;;3.55;;
49784;SDS011;35679;38.732;-121.358;2023-07-30T01:48:13;3.38;;;3.13;;
49784;SDS011;35679;38.732;-121.358;2023-07-30T01:51:03;3.08;;;2.88;;
49784;SDS011;35679;38.732;-121.358;2023-07-30T01:53:53;3.80;;;3.50;;
49784;SDS011;35679;38.732;-121.358;2023-07-30T01:56:43;3.35;;;3.15;;
49784;SDS011;35679;38.732;-121.358;2023-07-30T01:59:33;3.53;;;3.22;;
49784;SDS011;35679;38.732;-121.358;2023-07-30T02:02:22;3.08;;;2.88;;
49784;SDS011;35679;38.732;-121.358;2023-07-30T02:05:12;3.58;;;3.28;;
49784;SDS011;35679;38.732;-121.358;2023-07-30T02:08:04;4.18;;;3.78;;
49784;SDS011;35679;38.732;-121.358;2023-07-30T02:10:57;3.92;;;3.63;;
49784;SDS011;35679;38.732;-121.358;2023-07-30T02:13:48;3.35;;;3.08;;
49784;SDS011;35679;38.732;-121.358;2023-07-30T02:16:38;3.45;;;3.15;;
49784;SDS011;35679;38.732;-121.358;2023-07-30T02:19:27;3.92;;;3.53;;
49784;SDS011;35679;38.732;-121.358;2023-07-30T02:22:17;3.75;;;3.33;;
49784;SDS011;35679;38.732;-121.358;2023-07-30T02:25:07;3.75;;;3.45;;
49784;SDS011;35679;38.732;-121.358;2023-07-30T02:27:58;3.55;;;3.25;;
49784;SDS011;35679;38.732;-121.358;2023-07-30T02:30:49;3.88;;;3.45;;
49784;SDS011;35679;38.732;-121.358;2023-07-30T02:33:38;3.55;;;3.25;;
49784;SDS011;35679;38.732;-121.358;2023-07-30T02:36:28;3.80;;;3.50;;
49784;SDS011;35679;38.732;-121.358;2023-07-30T02:39:18;3.80;;;3.50;;
49784;SDS011;35679;38.732;-121.358;2023-07-30T02:42:08;3.72;;;3.25;;
49784;SDS011;35679;38.732;-121.358;2023-07-30T02:44:58;3.55;;;3.25;;
49784;SDS011;35679;38.732;-121.358;2023-07-30T02:47:48;3.78;;;3.47;;
49784;SDS011;35679;38.732;-121.358;2023-07-30T02:50:37;3.60;;;3.30;;
49784;SDS011;35679;38.732;-121.358;2023-07-30T02:53:27;3.65;;;3.35;;
49784;SDS011;35679;38.732;-121.358;2023-07-30T02:56:17;3.13;;;2.92;;
49784;SDS011;35679;38.732;-121.358;2023-07-30T02:59:06;3.78;;;3.47;;
49784;SDS011;35679;38.732;-121.358;2023-07-30T03:01:55;3.50;;;2.92;;
49784;SDS011;35679;38.732;-121.358;2023-07-30T03:04:45;3.72;;;3.45;;
49784;SDS011;35679;38.732;-121.358;2023-07-30T03:07:35;3.60;;;3.30;;
49784;SDS011;35679;38.732;-121.358;2023-07-30T03:10:25;3.33;;;3.13;;
49784;SDS011;35679;38.732;-121.358;2023-07-30T03:13:15;3.58;;;3.28;;
49784;SDS011;35679;38.732;-121.358;2023-07-30T03:16:06;3.30;;;3.00;;
49784;SDS011;35679;38.732;-121.358;2023-07-30T03:18:56;3.97;;;3.67;;
49784;SDS011;35679;38.732;-121.358;2023-07-30T03:21:46;5.07;;;3.97;;
49784;SDS011;35679;38.732;-121.358;2023-07-30T03:24:36;3.35;;;3.05;;
49784;SDS011;35679;38.732;-121.358;2023-07-30T03:27:26;4.07;;;3.60;;
49784;SDS011;35679;38.732;-121.358;2023-07-30T03:30:15;3.40;;;3.10;;
49784;SDS011;35679;38.732;-121.358;2023-07-30T03:33:05;3.33;;;3.13;;
49784;SDS011;35679;38.732;-121.358;2023-07-30T03:35:54;3.35;;;3.05;;
49784;SDS011;35679;38.732;-121.358;2023-07-30T03:38:44;5.22;;;3.10;;
49784;SDS011;35679;38.732;-121.358;2023-07-30T03:41:33;3.58;;;3.08;;
49784;SDS011;35679;38.732;-121.358;2023-07-30T03:44:24;3.50;;;3.20;;
49784;SDS011;35679;38.732;-121.358;2023-07-30T03:47:13;3.20;;;2.95;;
49784;SDS011;35679;38.732;-121.358;2023-07-30T03:50:02;3.97;;;3.25;;
49784;SDS011;35679;38.732;-121.358;2023-07-30T03:52:52;3.38;;;3.08;;
49784;SDS011;35679;38.732;-121.358;2023-07-30T03:55:42;3.45;;;3.15;;
49784;SDS011;35679;38.732;-121.358;2023-07-30T03:58:31;3.33;;;3.03;;
49784;SDS011;35679;38.732;-121.358;2023-07-30T04:01:23;4.05;;;3.05;;
49784;SDS011;35679;38.732;-121.358;2023-07-30T04:04:13;5.32;;;3.85;;
49784;SDS011;35679;38.732;-121.358;2023-07-30T04:07:03;4.38;;;3.58;;
49784;SDS011;35679;38.732;-121.358;2023-07-30T04:09:53;3.20;;;2.90;;
49784;SDS011;35679;38.732;-121.358;2023-07-30T04:12:42;4.07;;;3.45;;
49784;SDS011;35679;38.732;-121.358;2023-07-30T04:15:32;4.63;;;3.60;;
49784;SDS011;35679;38.732;-121.358;2023-07-30T04:18:21;3.60;;;3.30;;
49784;SDS011;35679;38.732;-121.358;2023-07-30T04:21:11;3.65;;;3.35;;
49784;SDS011;35679;38.732;-121.358;2023-07-30T04:24:02;3.80;;;3.50;;
49784;SDS011;35679;38.732;-121.358;2023-07-30T04:26:51;4.32;;;3.67;;
49784;SDS011;35679;38.732;-121.358;2023-07-30T04:29:41;4.10;;;3.20;;
49784;SDS011;35679;38.732;-121.358;2023-07-30T04:32:31;3.80;;;3.35;;
49784;SDS011;35679;38.732;-121.358;2023-07-30T04:35:20;3.40;;;3.10;;
49784;SDS011;35679;38.732;-121.358;2023-07-30T04:38:10;3.92;;;3.08;;
49784;SDS011;35679;38.732;-121.358;2023-07-30T04:41:00;3.25;;;2.95;;
49784;SDS011;35679;38.732;-121.358;2023-07-30T04:43:52;5.30;;;3.47;;
49784;SDS011;35679;38.732;-121.358;2023-07-30T04:46:41;4.32;;;3.30;;
49784;SDS011;35679;38.732;-121.358;2023-07-30T04:49:31;3.22;;;2.92;;
49784;SDS011;35679;38.732;-121.358;2023-07-30T04:52:21;3.53;;;3.20;;
49784;SDS011;35679;38.732;-121.358;2023-07-30T04:55:10;3.45;;;3.15;;
49784;SDS011;35679;38.732;-121.358;2023-07-30T04:57:59;4.25;;;3.20;;
49784;SDS011;35679;38.732;-121.358;2023-07-30T05:00:49;3.63;;;3.33;;
49784;SDS011;35679;38.732;-121.358;2023-07-30T05:03:39;3.80;;;3.17;;
49784;SDS011;35679;38.732;-121.358;2023-07-30T05:06:28;3.60;;;3.30;;
49784;SDS011;35679;38.732;-121.358;2023-07-30T05:09:18;3.55;;;3.20;;
49784;SDS011;35679;38.732;-121.358;2023-07-30T05:12:07;3.60;;;3.30;;
49784;SDS011;35679;38.732;-121.358;2023-07-30T05:14:57;4.07;;;3.20;;
49784;SDS011;35679;38.732;-121.358;2023-07-30T05:17:46;3.35;;;3.05;;
49784;SDS011;35679;38.732;-121.358;2023-07-30T05:20:36;3.55;;;3.10;;
49784;SDS011;35679;38.732;-121.358;2023-07-30T05:23:25;3.33;;;3.08;;
49784;SDS011;35679;38.732;-121.358;2023-07-30T05:26:15;3.30;;;3.00;;
49784;SDS011;35679;38.732;-121.358;2023-07-30T05:29:04;4.60;;;3.50;;
49784;SDS011;35679;38.732;-121.358;2023-07-30T05:31:54;3.83;;;3.40;;
49784;SDS011;35679;38.732;-121.358;2023-07-30T05:34:44;3.60;;;3.10;;
49784;SDS011;35679;38.732;-121.358;2023-07-30T05:37:33;3.72;;;3.30;;
49784;SDS011;35679;38.732;-121.358;2023-07-30T05:40:24;3.38;;;3.08;;
49784;SDS011;35679;38.732;-121.358;2023-07-30T05:43:13;3.35;;;3.05;;
49784;SDS011;35679;38.732;-121.358;2023-07-30T05:46:03;3.92;;;3.28;;
49784;SDS011;35679;38.732;-121.358;2023-07-30T05:48:52;3.38;;;3.08;;
49784;SDS011;35679;38.732;-121.358;2023-07-30T05:51:41;3.50;;;3.10;;
49784;SDS011;35679;38.732;-121.358;2023-07-30T05:54:31;3.60;;;3.30;;
49784;SDS011;35679;38.732;-121.358;2023-07-30T05:57:20;3.78;;;3.40;;
49784;SDS011;35679;38.732;-121.358;2023-07-30T06:00:10;5.05;;;4.60;;
49784;SDS011;35679;38.732;-121.358;2023-07-30T06:03:01;5.80;;;5.40;;
49784;SDS011;35679;38.732;-121.358;2023-07-30T06:05:51;5.38;;;4.97;;
49784;SDS011;35679;38.732;-121.358;2023-07-30T06:08:41;5.10;;;4.63;;
49784;SDS011;35679;38.732;-121.358;2023-07-30T06:11:30;5.53;;;4.75;;
49784;SDS011;35679;38.732;-121.358;2023-07-30T06:14:20;5.35;;;4.40;;
49784;SDS011;35679;38.732;-121.358;2023-07-30T06:17:09;5.32;;;4.82;;
49784;SDS011;35679;38.732;-121.358;2023-07-30T06:19:59;4.93;;;4.53;;
49784;SDS011;35679;38.732;-121.358;2023-07-30T06:22:49;5.00;;;4.63;;
49784;SDS011;35679;38.732;-121.358;2023-07-30T06:25:38;4.15;;;3.70;;
49784;SDS011;35679;38.732;-121.358;2023-07-30T06:28:27;4.32;;;3.72;;
49784;SDS011;35679;38.732;-121.358;2023-07-30T06:31:17;4.55;;;4.25;;
49784;SDS011;35679;38.732;-121.358;2023-07-30T06:34:07;4.53;;;4.18;;
49784;SDS011;35679;38.732;-121.358;2023-07-30T06:36:56;4.60;;;4.15;;
49784;SDS011;35679;38.732;-121.358;2023-07-30T06:39:46;4.40;;;4.00;;
49784;SDS011;35679;38.732;-121.358;2023-07-30T06:42:35;3.72;;;3.42;;
49784;SDS011;35679;38.732;-121.358;2023-07-30T06:45:25;4.18;;;3.78;;
49784;SDS011;35679;38.732;-121.358;2023-07-30T06:48:14;5.20;;;3.90;;
49784;SDS011;35679;38.732;-121.358;2023-07-30T06:51:05;4.03;;;3.63;;
49784;SDS011;35679;38.732;-121.358;2023-07-30T06:53:56;3.88;;;3.58;;
49784;SDS011;35679;38.732;-121.358;2023-07-30T06:56:45;4.38;;;3.63;;
49784;SDS011;35679;38.732;-121.358;2023-07-30T06:59:35;4.78;;;3.67;;
49784;SDS011;35679;38.732;-121.358;2023-07-30T07:02:24;4.35;;;3.53;;
49784;SDS011;35679;38.732;-121.358;2023-07-30T07:05:14;6.05;;;5.65;;
49784;SDS011;35679;38.732;-121.358;2023-07-30T07:08:04;5.05;;;4.75;;
49784;SDS011;35679;38.732;-121.358;2023-07-30T07:10:54;4.90;;;4.50;;
49784;SDS011;35679;38.732;-121.358;2023-07-30T07:13:43;4.82;;;4.50;;
49784;SDS011;35679;38.732;-121.358;2023-07-30T07:16:33;4.32;;;3.80;;
49784;SDS011;35679;38.732;-121.358;2023-07-30T07:19:22;4.20;;;3.80;;
49784;SDS011;35679;38.732;-121.358;2023-07-30T07:22:12;4.00;;;3.70;;
49784;SDS011;35679;38.732;-121.358;2023-07-30T07:25:01;3.95;;;3.65;;
49784;SDS011;35679;38.732;-121.358;2023-07-30T07:27:51;4.28;;;3.95;;
49784;SDS011;35679;38.732;-121.358;2023-07-30T07:30:40;5.72;;;5.22;;
49784;SDS011;35679;38.732;-121.358;2023-07-30T07:33:30;5.78;;;5.30;;
49784;SDS011;35679;38.732;-121.358;2023-07-30T07:36:19;5.85;;;5.35;;
49784;SDS011;35679;38.732;-121.358;2023-07-30T07:39:09;5.47;;;5.07;;
49784;SDS011;35679;38.732;-121.358;2023-07-30T07:41:59;5.85;;;5.28;;
49784;SDS011;35679;38.732;-121.358;2023-07-30T07:44:51;4.10;;;3.70;;
49784;SDS011;35679;38.732;-121.358;2023-07-30T07:47:40;5.55;;;5.15;;
49784;SDS011;35679;38.732;-121.358;2023-07-30T07:50:30;6.88;;;6.30;;
49784;SDS011;35679;38.732;-121.358;2023-07-30T07:53:19;7.05;;;6.60;;
49784;SDS011;35679;38.732;-121.358;2023-07-30T07:56:09;4.10;;;3.70;;
49784;SDS011;35679;38.732;-121.358;2023-07-30T07:58:58;4.90;;;4.03;;
49784;SDS011;35679;38.732;-121.358;2023-07-30T08:01:48;4.68;;;4.28;;
49784;SDS011;35679;38.732;-121.358;2023-07-30T08:04:37;5.55;;;4.40;;
49784;SDS011;35679;38.732;-121.358;2023-07-30T08:07:27;4.53;;;3.90;;
49784;SDS011;35679;38.732;-121.358;2023-07-30T08:10:17;4.03;;;3.70;;
49784;SDS011;35679;38.732;-121.358;2023-07-30T08:13:06;4.63;;;3.45;;
49784;SDS011;35679;38.732;-121.358;2023-07-30T08:15:56;4.10;;;3.70;;
49784;SDS011;35679;38.732;-121.358;2023-07-30T08:18:46;4.43;;;3.08;;
49784;SDS011;35679;38.732;-121.358;2023-07-30T08:21:35;3.20;;;2.90;;
49784;SDS011;35679;38.732;-121.358;2023-07-30T08:24:25;3.15;;;2.72;;
49784;SDS011;35679;38.732;-121.358;2023-07-30T08:27:14;3.17;;;2.83;;
49784;SDS011;35679;38.732;-121.358;2023-07-30T08:30:04;2.75;;;2.55;;
49784;SDS011;35679;38.732;-121.358;2023-07-30T08:32:54;3.42;;;2.60;;
49784;SDS011;35679;38.732;-121.358;2023-07-30T08:35:43;4.25;;;2.78;;
49784;SDS011;35679;38.732;-121.358;2023-07-30T08:38:33;3.20;;;2.90;;
49784;SDS011;35679;38.732;-121.358;2023-07-30T08:41:22;4.20;;;2.88;;
49784;SDS011;35679;38.732;-121.358;2023-07-30T08:44:12;3.40;;;2.70;;
49784;SDS011;35679;38.732;-121.358;2023-07-30T08:47:02;4.50;;;2.60;;
49784;SDS011;35679;38.732;-121.358;2023-07-30T08:49:51;4.00;;;3.03;;
49784;SDS011;35679;38.732;-121.358;2023-07-30T08:52:41;4.85;;;3.05;;
49784;SDS011;35679;38.732;-121.358;2023-07-30T08:55:32;3.42;;;2.70;;
49784;SDS011;35679;38.732;-121.358;2023-07-30T08:58:23;2.73;;;2.53;;
49784;SDS011;35679;38.732;-121.358;2023-07-30T09:01:14;3.25;;;2.95;;
49784;SDS011;35679;38.732;-121.358;2023-07-30T09:04:06;3.75;;;2.50;;
49784;SDS011;35679;38.732;-121.358;2023-07-30T09:06:59;3.10;;;2.67;;
49784;SDS011;35679;38.732;-121.358;2023-07-30T09:09:49;2.88;;;2.65;;
49784;SDS011;35679;38.732;-121.358;2023-07-30T09:12:40;3.75;;;3.00;;
49784;SDS011;35679;38.732;-121.358;2023-07-30T09:15:33;3.17;;;2.75;;
49784;SDS011;35679;38.732;-121.358;2023-07-30T09:18:26;2.95;;;2.60;;
49784;SDS011;35679;38.732;-121.358;2023-07-30T09:21:16;2.58;;;2.30;;
49784;SDS011;35679;38.732;-121.358;2023-07-30T09:24:05;4.05;;;2.45;;
49784;SDS011;35679;38.732;-121.358;2023-07-30T09:26:55;3.20;;;2.60;;
49784;SDS011;35679;38.732;-121.358;2023-07-30T09:29:50;3.60;;;2.60;;
49784;SDS011;35679;38.732;-121.358;2023-07-30T09:32:43;2.65;;;2.35;;
49784;SDS011;35679;38.732;-121.358;2023-07-30T09:35:33;3.70;;;2.65;;
49784;SDS011;35679;38.732;-121.358;2023-07-30T09:38:23;3.10;;;2.63;;
49784;SDS011;35679;38.732;-121.358;2023-07-30T09:41:14;3.50;;;2.63;;
49784;SDS011;35679;38.732;-121.358;2023-07-30T09:44:04;2.83;;;2.60;;
49784;SDS011;35679;38.732;-121.358;2023-07-30T09:46:53;3.33;;;2.53;;
49784;SDS011;35679;38.732;-121.358;2023-07-30T09:49:42;3.17;;;2.38;;
49784;SDS011;35679;38.732;-121.358;2023-07-30T09:52:32;3.80;;;2.60;;
49784;SDS011;35679;38.732;-121.358;2023-07-30T09:55:22;2.70;;;2.47;;
49784;SDS011;35679;38.732;-121.358;2023-07-30T09:58:13;3.22;;;2.88;;
49784;SDS011;35679;38.732;-121.358;2023-07-30T10:01:02;2.95;;;2.65;;
49784;SDS011;35679;38.732;-121.358;2023-07-30T10:03:55;3.03;;;2.67;;
49784;SDS011;35679;38.732;-121.358;2023-07-30T10:09:50;3.20;;;2.90;;
49784;SDS011;35679;38.732;-121.358;2023-07-30T10:12:43;4.78;;;2.53;;
49784;SDS011;35679;38.732;-121.358;2023-07-30T10:15:39;3.97;;;2.88;;
49784;SDS011;35679;38.732;-121.358;2023-07-30T10:18:41;3.30;;;2.75;;
49784;SDS011;35679;38.732;-121.358;2023-07-30T10:21:32;3.58;;;2.60;;
49784;SDS011;35679;38.732;-121.358;2023-07-30T10:24:22;3.75;;;2.60;;
49784;SDS011;35679;38.732;-121.358;2023-07-30T10:27:13;2.70;;;2.50;;
49784;SDS011;35679;38.732;-121.358;2023-07-30T10:30:17;4.00;;;2.83;;
49784;SDS011;35679;38.732;-121.358;2023-07-30T10:33:09;4.65;;;2.85;;
49784;SDS011;35679;38.732;-121.358;2023-07-30T10:35:59;2.53;;;2.33;;
49784;SDS011;35679;38.732;-121.358;2023-07-30T10:38:49;2.90;;;2.50;;
49784;SDS011;35679;38.732;-121.358;2023-07-30T10:41:39;3.45;;;2.78;;
49784;SDS011;35679;38.732;-121.358;2023-07-30T10:44:31;2.75;;;2.28;;
49784;SDS011;35679;38.732;-121.358;2023-07-30T10:47:26;4.03;;;2.63;;
49784;SDS011;35679;38.732;-121.358;2023-07-30T10:50:23;3.10;;;2.85;;
49784;SDS011;35679;38.732;-121.358;2023-07-30T10:53:13;3.10;;;2.63;;
49784;SDS011;35679;38.732;-121.358;2023-07-30T10:56:06;3.45;;;2.65;;
49784;SDS011;35679;38.732;-121.358;2023-07-30T10:58:56;3.63;;;2.67;;
49784;SDS011;35679;38.732;-121.358;2023-07-30T11:01:46;2.83;;;2.53;;
49784;SDS011;35679;38.732;-121.358;2023-07-30T11:04:36;2.92;;;2.72;;
49784;SDS011;35679;38.732;-121.358;2023-07-30T11:07:25;3.38;;;2.58;;
49784;SDS011;35679;38.732;-121.358;2023-07-30T11:10:14;4.55;;;2.53;;
49784;SDS011;35679;38.732;-121.358;2023-07-30T11:13:04;2.90;;;2.60;;
49784;SDS011;35679;38.732;-121.358;2023-07-30T11:15:53;2.90;;;2.70;;
49784;SDS011;35679;38.732;-121.358;2023-07-30T11:18:43;3.97;;;2.90;;
49784;SDS011;35679;38.732;-121.358;2023-07-30T11:21:34;4.63;;;3.17;;
49784;SDS011;35679;38.732;-121.358;2023-07-30T11:24:34;4.70;;;2.95;;
49784;SDS011;35679;38.732;-121.358;2023-07-30T11:27:24;3.63;;;2.42;;
49784;SDS011;35679;38.732;-121.358;2023-07-30T11:30:14;5.65;;;2.47;;
49784;SDS011;35679;38.732;-121.358;2023-07-30T11:33:03;3.17;;;2.70;;
49784;SDS011;35679;38.732;-121.358;2023-07-30T11:35:53;4.10;;;2.70;;
49784;SDS011;35679;38.732;-121.358;2023-07-30T11:38:45;4.80;;;2.45;;
49784;SDS011;35679;38.732;-121.358;2023-07-30T11:41:35;2.80;;;2.50;;
49784;SDS011;35679;38.732;-121.358;2023-07-30T11:44:34;3.75;;;2.63;;
49784;SDS011;35679;38.732;-121.358;2023-07-30T11:47:28;2.72;;;2.45;;
49784;SDS011;35679;38.732;-121.358;2023-07-30T11:50:18;4.95;;;2.63;;
49784;SDS011;35679;38.732;-121.358;2023-07-30T11:53:07;4.22;;;2.55;;
49784;SDS011;35679;38.732;-121.358;2023-07-30T11:55:57;5.70;;;2.75;;
49784;SDS011;35679;38.732;-121.358;2023-07-30T11:58:46;4.50;;;2.53;;
49784;SDS011;35679;38.732;-121.358;2023-07-30T12:01:36;3.05;;;2.75;;
49784;SDS011;35679;38.732;-121.358;2023-07-30T12:04:30;4.43;;;2.80;;
49784;SDS011;35679;38.732;-121.358;2023-07-30T12:07:23;2.97;;;2.50;;
49784;SDS011;35679;38.732;-121.358;2023-07-30T12:10:14;7.22;;;2.80;;
49784;SDS011;35679;38.732;-121.358;2023-07-30T12:13:15;3.28;;;2.92;;
49784;SDS011;35679;38.732;-121.358;2023-07-30T12:16:06;2.72;;;2.40;;
49784;SDS011;35679;38.732;-121.358;2023-07-30T12:18:55;3.40;;;3.10;;
49784;SDS011;35679;38.732;-121.358;2023-07-30T12:21:45;4.80;;;2.70;;
49784;SDS011;35679;38.732;-121.358;2023-07-30T12:24:34;3.33;;;2.70;;
49784;SDS011;35679;38.732;-121.358;2023-07-30T12:27:24;3.95;;;3.13;;
49784;SDS011;35679;38.732;-121.358;2023-07-30T12:30:13;4.90;;;2.33;;
49784;SDS011;35679;38.732;-121.358;2023-07-30T12:33:03;4.70;;;2.80;;
49784;SDS011;35679;38.732;-121.358;2023-07-30T12:35:53;4.28;;;2.63;;
49784;SDS011;35679;38.732;-121.358;2023-07-30T12:38:43;3.25;;;2.45;;
49784;SDS011;35679;38.732;-121.358;2023-07-30T12:41:33;3.47;;;2.45;;
49784;SDS011;35679;38.732;-121.358;2023-07-30T12:44:23;4.32;;;2.60;;
49784;SDS011;35679;38.732;-121.358;2023-07-30T12:47:13;7.30;;;2.90;;
49784;SDS011;35679;38.732;-121.358;2023-07-30T12:50:03;4.68;;;2.95;;
49784;SDS011;35679;38.732;-121.358;2023-07-30T12:52:53;5.22;;;2.63;;
49784;SDS011;35679;38.732;-121.358;2023-07-30T12:55:42;3.15;;;2.13;;
49784;SDS011;35679;38.732;-121.358;2023-07-30T12:58:32;4.50;;;2.85;;
49784;SDS011;35679;38.732;-121.358;2023-07-30T13:01:21;5.38;;;2.90;;
49784;SDS011;35679;38.732;-121.358;2023-07-30T13:04:12;6.47;;;2.70;;
49784;SDS011;35679;38.732;-121.358;2023-07-30T13:07:01;3.80;;;2.80;;
49784;SDS011;35679;38.732;-121.358;2023-07-30T13:10:12;3.97;;;2.80;;
49784;SDS011;35679;38.732;-121.358;2023-07-30T13:13:01;3.28;;;2.53;;
49784;SDS011;35679;38.732;-121.358;2023-07-30T13:15:50;2.90;;;2.55;;
49784;SDS011;35679;38.732;-121.358;2023-07-30T13:18:39;3.80;;;2.78;;
49784;SDS011;35679;38.732;-121.358;2023-07-30T13:21:29;4.70;;;2.53;;
49784;SDS011;35679;38.732;-121.358;2023-07-30T13:24:18;3.72;;;2.78;;
49784;SDS011;35679;38.732;-121.358;2023-07-30T13:27:08;5.85;;;3.33;;
49784;SDS011;35679;38.732;-121.358;2023-07-30T13:29:57;2.97;;;2.53;;
49784;SDS011;35679;38.732;-121.358;2023-07-30T13:32:47;8.75;;;3.25;;
49784;SDS011;35679;38.732;-121.358;2023-07-30T13:35:36;4.53;;;2.95;;
49784;SDS011;35679;38.732;-121.358;2023-07-30T13:38:26;3.13;;;2.67;;
49784;SDS011;35679;38.732;-121.358;2023-07-30T13:41:16;4.90;;;2.70;;
49784;SDS011;35679;38.732;-121.358;2023-07-30T13:44:05;5.03;;;2.45;;
49784;SDS011;35679;38.732;-121.358;2023-07-30T13:46:54;5.38;;;3.00;;
49784;SDS011;35679;38.732;-121.358;2023-07-30T13:49:44;4.28;;;2.45;;
49784;SDS011;35679;38.732;-121.358;2023-07-30T13:52:36;4.40;;;2.83;;
49784;SDS011;35679;38.732;-121.358;2023-07-30T13:55:25;6.45;;;2.70;;
49784;SDS011;35679;38.732;-121.358;2023-07-30T13:58:14;17.30;;;3.90;;
49784;SDS011;35679;38.732;-121.358;2023-07-30T14:01:04;9.55;;;3.15;;
49784;SDS011;35679;38.732;-121.358;2023-07-30T14:03:53;3.45;;;2.40;;
49784;SDS011;35679;38.732;-121.358;2023-07-30T14:06:43;6.47;;;3.10;;
49784;SDS011;35679;38.732;-121.358;2023-07-30T14:09:33;7.07;;;2.80;;
49784;SDS011;35679;38.732;-121.358;2023-07-30T14:12:25;6.75;;;2.78;;
49784;SDS011;35679;38.732;-121.358;2023-07-30T14:15:15;3.58;;;2.47;;
49784;SDS011;35679;38.732;-121.358;2023-07-30T14:18:05;5.25;;;2.85;;
49784;SDS011;35679;38.732;-121.358;2023-07-30T14:20:54;5.65;;;3.03;;
49784;SDS011;35679;38.732;-121.358;2023-07-30T14:23:43;4.38;;;2.78;;
49784;SDS011;35679;38.732;-121.358;2023-07-30T14:26:33;5.45;;;2.63;;
49784;SDS011;35679;38.732;-121.358;2023-07-30T14:29:22;5.15;;;2.75;;
49784;SDS011;35679;38.732;-121.358;2023-07-30T14:32:12;3.35;;;2.83;;
49784;SDS011;35679;38.732;-121.358;2023-07-30T14:35:01;4.22;;;2.92;;
49784;SDS011;35679;38.732;-121.358;2023-07-30T14:37:50;4.68;;;2.67;;
49784;SDS011;35679;38.732;-121.358;2023-07-30T14:40:43;6.47;;;3.10;;
49784;SDS011;35679;38.732;-121.358;2023-07-30T14:43:32;7.72;;;3.13;;
49784;SDS011;35679;38.732;-121.358;2023-07-30T14:46:21;6.68;;;2.78;;
49784;SDS011;35679;38.732;-121.358;2023-07-30T14:49:11;6.95;;;3.00;;
49784;SDS011;35679;38.732;-121.358;2023-07-30T14:52:01;5.68;;;2.72;;
49784;SDS011;35679;38.732;-121.358;2023-07-30T14:54:50;5.03;;;2.80;;
49784;SDS011;35679;38.732;-121.358;2023-07-30T14:57:40;5.88;;;2.80;;
49784;SDS011;35679;38.732;-121.358;2023-07-30T15:00:29;5.10;;;2.67;;
49784;SDS011;35679;38.732;-121.358;2023-07-30T15:03:19;5.80;;;2.90;;
49784;SDS011;35679;38.732;-121.358;2023-07-30T15:06:09;4.05;;;2.70;;
49784;SDS011;35679;38.732;-121.358;2023-07-30T15:08:58;3.17;;;2.75;;
49784;SDS011;35679;38.732;-121.358;2023-07-30T15:11:48;3.75;;;2.50;;
49784;SDS011;35679;38.732;-121.358;2023-07-30T15:14:37;4.28;;;3.00;;
49784;SDS011;35679;38.732;-121.358;2023-07-30T15:17:27;5.57;;;2.75;;
49784;SDS011;35679;38.732;-121.358;2023-07-30T15:20:16;7.22;;;2.70;;
49784;SDS011;35679;38.732;-121.358;2023-07-30T15:23:06;8.75;;;5.25;;
49784;SDS011;35679;38.732;-121.358;2023-07-30T15:25:57;5.45;;;4.93;;
49784;SDS011;35679;38.732;-121.358;2023-07-30T15:28:49;6.65;;;5.00;;
49784;SDS011;35679;38.732;-121.358;2023-07-30T15:31:39;7.00;;;5.20;;
49784;SDS011;35679;38.732;-121.358;2023-07-30T15:34:28;11.43;;;5.10;;
49784;SDS011;35679;38.732;-121.358;2023-07-30T15:37:18;10.70;;;5.22;;
49784;SDS011;35679;38.732;-121.358;2023-07-30T15:40:08;14.48;;;5.43;;
49784;SDS011;35679;38.732;-121.358;2023-07-30T15:42:57;10.95;;;5.03;;
49784;SDS011;35679;38.732;-121.358;2023-07-30T15:45:47;4.82;;;4.30;;
49784;SDS011;35679;38.732;-121.358;2023-07-30T15:48:36;12.85;;;4.50;;
49784;SDS011;35679;38.732;-121.358;2023-07-30T15:51:26;7.43;;;4.32;;
49784;SDS011;35679;38.732;-121.358;2023-07-30T15:54:17;5.88;;;4.40;;
49784;SDS011;35679;38.732;-121.358;2023-07-30T15:57:06;4.68;;;4.15;;
49784;SDS011;35679;38.732;-121.358;2023-07-30T15:59:59;7.75;;;4.50;;
49784;SDS011;35679;38.732;-121.358;2023-07-30T16:02:58;9.32;;;4.35;;
49784;SDS011;35679;38.732;-121.358;2023-07-30T16:05:49;7.03;;;4.38;;
49784;SDS011;35679;38.732;-121.358;2023-07-30T16:08:38;7.68;;;4.90;;
49784;SDS011;35679;38.732;-121.358;2023-07-30T16:11:28;7.57;;;4.55;;
49784;SDS011;35679;38.732;-121.358;2023-07-30T16:14:17;5.47;;;4.45;;
49784;SDS011;35679;38.732;-121.358;2023-07-30T16:17:08;8.18;;;4.32;;
49784;SDS011;35679;38.732;-121.358;2023-07-30T16:19:58;7.78;;;4.22;;
49784;SDS011;35679;38.732;-121.358;2023-07-30T16:22:47;5.53;;;4.57;;